createdAt,value
2022-11-19T00:01:53.795Z,99492.56
2022-11-19T00:04:22.974Z,99494.38
2022-11-19T00:06:51.090Z,99488.91
2022-11-19T00:09:19.045Z,99491.56
2022-11-19T00:12:04.437Z,99489.06
2022-11-19T00:14:32.193Z,99498.44
2022-11-19T00:16:59.925Z,99488.66
2022-11-19T00:19:29.077Z,99497.34
2022-11-19T00:21:56.912Z,99497.22
2022-11-19T00:24:24.603Z,99492.72
2022-11-19T00:26:52.354Z,99492.59
2022-11-19T00:29:20.304Z,99496.94
2022-11-19T00:31:48.220Z,99493.19
2022-11-19T00:34:16.185Z,99492.72
2022-11-19T00:36:45.372Z,99484.88
2022-11-19T00:39:13.153Z,99490.31
2022-11-19T00:41:40.885Z,99490.59
2022-11-19T00:44:09.087Z,99486.97
2022-11-19T00:46:36.924Z,99488.91
2022-11-19T00:49:04.802Z,99484.47
2022-11-19T00:51:32.548Z,99484.47
2022-11-19T00:54:01.719Z,99486.25
2022-11-19T00:56:29.483Z,99483.59
2022-11-19T00:58:57.334Z,99474.09
2022-11-19T01:01:27.173Z,99477.59
2022-11-19T01:03:55.768Z,99487.66
2022-11-19T01:06:26.269Z,99483.28
2022-11-19T01:08:55.088Z,99486.06
2022-11-19T01:11:25.787Z,99487.28
2022-11-19T01:13:53.661Z,99488.63
2022-11-19T01:16:23.939Z,99492.28
2022-11-19T01:18:52.816Z,99497.72
2022-11-19T01:21:22.515Z,99494.94
2022-11-19T01:23:50.903Z,99497.59
2022-11-19T01:26:19.303Z,99486.38
2022-11-19T01:28:48.877Z,99499.94
2022-11-19T01:31:19.064Z,99497.41
2022-11-19T01:33:46.978Z,99494.75
2022-11-19T01:36:16.990Z,99496.69
2022-11-19T01:38:50.556Z,99491.63
2022-11-19T01:41:18.528Z,99502.50
2022-11-19T01:43:49.841Z,99492.84
2022-11-19T01:46:19.718Z,99492.16
2022-11-19T01:48:50.769Z,99497.72
2022-11-19T01:51:22.767Z,99498.09
2022-11-19T01:53:52.646Z,99500.63
2022-11-19T01:56:22.599Z,99504.09
2022-11-19T01:58:55.743Z,99504.09
2022-11-19T02:01:23.815Z,99504.09
2022-11-19T02:03:53.504Z,99500.75
2022-11-19T02:06:21.774Z,99496.44
2022-11-19T02:08:51.605Z,99502.56
2022-11-19T02:11:43.226Z,99496.56
2022-11-19T02:14:25.932Z,99499.78
2022-11-19T02:17:00.626Z,99500.50
2022-11-19T02:19:53.250Z,99497.72
2022-11-19T02:22:37.944Z,99500.38
2022-11-19T02:25:15.406Z,99503.03
2022-11-19T02:28:08.765Z,99504.81
2022-11-19T02:30:39.478Z,99514.72
2022-11-19T02:33:11.713Z,99509.28
2022-11-19T02:35:48.228Z,99510.13
2022-11-19T02:38:28.252Z,99506.53
2022-11-19T02:40:59.813Z,99510.00
2022-11-19T02:43:33.938Z,99506.53
2022-11-19T02:46:09.804Z,99494.09
2022-11-19T02:48:41.014Z,99494.69
2022-11-19T02:51:10.354Z,99501.53
2022-11-19T02:53:38.123Z,99499.72
2022-11-19T02:56:13.834Z,99500.41
2022-11-19T02:59:04.035Z,99502.94
2022-11-19T03:01:53.449Z,99513.31
2022-11-19T03:04:32.854Z,99506.31
2022-11-19T03:07:05.904Z,99504.50
2022-11-19T03:09:36.194Z,99508.00
2022-11-19T03:12:14.640Z,99509.78
2022-11-19T03:15:07.840Z,99510.66
2022-11-19T03:17:50.876Z,99503.66
2022-11-19T03:20:25.060Z,99510.66
2022-11-19T03:22:55.905Z,99514.28
2022-11-19T03:25:27.848Z,99514.28
2022-11-19T03:28:00.741Z,99518.75
2022-11-19T03:30:28.927Z,99522.22
2022-11-19T03:33:04.819Z,99523.94
2022-11-19T03:35:38.995Z,99517.50
2022-11-19T03:38:11.849Z,99514.16
2022-11-19T03:40:40.553Z,99520.28
2022-11-19T03:43:11.491Z,99517.50
2022-11-19T03:45:44.561Z,99521.97
2022-11-19T03:48:16.410Z,99525.59
2022-11-19T03:50:50.660Z,99525.59
2022-11-19T03:53:20.263Z,99516.69
2022-11-19T03:55:53.668Z,99529.13
2022-11-19T03:58:25.433Z,99530.06
2022-11-19T04:00:53.705Z,99541.50
2022-11-19T04:03:22.824Z,99538.88
2022-11-19T04:05:50.523Z,99538.16
2022-11-19T04:08:18.278Z,99545.28
2022-11-19T04:10:46.058Z,99535.78
2022-11-19T04:13:13.749Z,99546.38
2022-11-19T04:15:41.454Z,99539.13
2022-11-19T04:18:09.224Z,99539.97
2022-11-19T04:20:38.352Z,99548.75
2022-11-19T04:23:06.127Z,99550.47
2022-11-19T04:25:33.771Z,99546.94
2022-11-19T04:28:01.474Z,99547.09
2022-11-19T04:30:30.108Z,99548.16
2022-11-19T04:32:57.851Z,99542.75
2022-11-19T04:35:25.541Z,99553.47
2022-11-19T04:37:54.660Z,99557.94
2022-11-19T04:40:22.375Z,99558.06
2022-11-19T04:42:50.145Z,99558.22
2022-11-19T04:45:17.942Z,99554.00
2022-11-19T04:47:45.624Z,99565.59
2022-11-19T04:50:14.049Z,99568.34
2022-11-19T04:52:41.791Z,99561.50
2022-11-19T04:55:11.736Z,99568.78
2022-11-19T04:57:39.439Z,99575.69
2022-11-19T05:00:08.689Z,99571.16
2022-11-19T05:02:36.972Z,99577.00
2022-11-19T05:05:04.958Z,99574.47
2022-11-19T05:07:32.749Z,99571.34
2022-11-19T05:10:00.557Z,99567.41
2022-11-19T05:12:29.606Z,99574.25
2022-11-19T05:14:57.438Z,99572.53
2022-11-19T05:17:25.195Z,99578.66
2022-11-19T05:19:52.860Z,99575.41
2022-11-19T05:22:20.619Z,99581.25
2022-11-19T05:24:48.296Z,99581.47
2022-11-19T05:27:15.999Z,99572.91
2022-11-19T05:29:45.059Z,99573.97
2022-11-19T05:32:12.739Z,99572.50
2022-11-19T05:34:40.497Z,99581.63
2022-11-19T05:37:08.196Z,99584.25
2022-11-19T05:39:35.887Z,99581.63
2022-11-19T05:42:03.632Z,99586.69
2022-11-19T05:44:31.802Z,99591.00
2022-11-19T05:47:00.898Z,99590.19
2022-11-19T05:49:28.696Z,99590.19
2022-11-19T05:51:56.383Z,99588.72
2022-11-19T05:54:24.065Z,99585.44
2022-11-19T05:56:51.959Z,99592.03
2022-11-19T05:59:20.395Z,99590.16
2022-11-19T06:01:48.340Z,99586.31
2022-11-19T06:04:17.371Z,99593.84
2022-11-19T06:06:45.076Z,99593.84
2022-11-19T06:09:12.877Z,99605.25
2022-11-19T06:11:50.319Z,99605.25
2022-11-19T06:14:19.379Z,99602.75
2022-11-19T06:16:47.059Z,99605.81
2022-11-19T06:19:14.968Z,99597.16
2022-11-19T06:21:44.183Z,99592.81
2022-11-19T06:24:12.805Z,99611.03
2022-11-19T06:26:41.363Z,99599.81
2022-11-19T06:29:09.730Z,99602.47
2022-11-19T06:31:37.708Z,99604.72
2022-11-19T06:34:05.495Z,99606.38
2022-11-19T06:36:40.272Z,99605.34
2022-11-19T06:39:11.502Z,99608.09
2022-11-19T06:41:39.247Z,99606.84
2022-11-19T06:44:06.958Z,99613.59
2022-11-19T06:46:34.652Z,99615.19
2022-11-19T06:49:03.688Z,99624.28
2022-11-19T06:51:31.439Z,99621.97
2022-11-19T06:53:59.235Z,99625.97
2022-11-19T06:56:28.316Z,99624.50
2022-11-19T06:58:58.775Z,99628.59
2022-11-19T07:01:26.978Z,99626.19
2022-11-19T07:03:54.777Z,99626.06
2022-11-19T07:06:22.441Z,99637.38
2022-11-19T07:08:50.125Z,99639.06
2022-11-19T07:11:29.953Z,99639.16
2022-11-19T07:13:59.889Z,99651.44
2022-11-19T07:16:32.786Z,99647.53
2022-11-19T07:19:01.863Z,99646.28
2022-11-19T07:21:31.058Z,99657.72
2022-11-19T07:24:00.046Z,99659.91
2022-11-19T07:26:28.267Z,99659.19
2022-11-19T07:28:58.462Z,99664.59
2022-11-19T07:31:30.866Z,99661.31
2022-11-19T07:33:59.022Z,99665.97
2022-11-19T07:36:26.744Z,99669.97
2022-11-19T07:38:55.445Z,99667.63
2022-11-19T07:41:40.906Z,99667.88
2022-11-19T07:44:08.608Z,99667.03
2022-11-19T07:46:37.637Z,99673.78
2022-11-19T07:49:05.370Z,99676.53
2022-11-19T07:51:33.141Z,99686.34
2022-11-19T07:54:00.993Z,99687.09
2022-11-19T07:56:29.127Z,99687.44
2022-11-19T07:58:56.943Z,99688.38
2022-11-19T08:01:25.281Z,99684.88
2022-11-19T08:03:56.776Z,99687.97
2022-11-19T08:06:26.535Z,99699.91
2022-11-19T08:08:55.800Z,99705.19
2022-11-19T08:11:24.159Z,99705.59
2022-11-19T08:13:52.221Z,99704.53
2022-11-19T08:16:34.315Z,99708.63
2022-11-19T08:19:04.342Z,99714.97
2022-11-19T08:21:32.016Z,99712.56
2022-11-19T08:23:59.677Z,99716.97
2022-11-19T08:26:27.401Z,99714.34
2022-11-19T08:28:55.063Z,99716.97
2022-11-19T08:31:22.853Z,99725.41
2022-11-19T08:33:50.510Z,99727.94
2022-11-19T08:36:19.675Z,99727.25
2022-11-19T08:38:47.365Z,99729.03
2022-11-19T08:41:37.827Z,99731.09
2022-11-19T08:44:05.761Z,99732.91
2022-11-19T08:46:33.461Z,99735.44
2022-11-19T08:49:02.311Z,99744.22
2022-11-19T08:51:31.370Z,99740.19
2022-11-19T08:53:59.080Z,99743.34
2022-11-19T08:56:26.998Z,99746.09
2022-11-19T08:59:01.311Z,99749.16
2022-11-19T09:01:30.436Z,99751.88
2022-11-19T09:03:58.373Z,99747.66
2022-11-19T09:06:26.087Z,99755.44
2022-11-19T09:08:55.286Z,99755.25
2022-11-19T09:11:23.888Z,99759.78
2022-11-19T09:13:51.613Z,99765.16
2022-11-19T09:16:20.157Z,99762.97
2022-11-19T09:18:47.825Z,99766.97
2022-11-19T09:21:15.844Z,99768.53
2022-11-19T09:23:43.592Z,99782.56
2022-11-19T09:26:15.118Z,99779.25
2022-11-19T09:28:43.604Z,99785.03
2022-11-19T09:31:13.266Z,99783.34
2022-11-19T09:33:43.302Z,99794.00
2022-11-19T09:36:12.785Z,99785.03
2022-11-19T09:38:41.273Z,99795.13
2022-11-19T09:41:31.382Z,99798.25
2022-11-19T09:44:13.430Z,99805.81
2022-11-19T09:46:48.907Z,99805.16
2022-11-19T09:49:23.593Z,99812.13
2022-11-19T09:51:59.592Z,99808.44
2022-11-19T09:54:27.702Z,99804.50
2022-11-19T09:57:04.079Z,99809.28
2022-11-19T09:59:36.776Z,99814.38
2022-11-19T10:02:13.999Z,99810.59
2022-11-19T10:04:41.764Z,99810.59
2022-11-19T10:07:15.249Z,99814.16
2022-11-19T10:09:56.389Z,99810.25
2022-11-19T10:12:47.090Z,99815.13
2022-11-19T10:15:25.378Z,99817.03
2022-11-19T10:18:05.291Z,99818.59
2022-11-19T10:20:52.538Z,99811.94
2022-11-19T10:23:24.310Z,99815.25
2022-11-19T10:25:58.767Z,99814.50
2022-11-19T10:28:31.867Z,99809.72
2022-11-19T10:31:07.985Z,99816.78
2022-11-19T10:33:41.273Z,99816.88
2022-11-19T10:36:12.853Z,99821.78
2022-11-19T10:38:51.011Z,99815.44
2022-11-19T10:41:24.679Z,99821.84
2022-11-19T10:43:58.981Z,99820.28
2022-11-19T10:46:28.568Z,99818.19
2022-11-19T10:48:58.696Z,99822.53
2022-11-19T10:51:30.731Z,99825.81
2022-11-19T10:53:58.893Z,99826.00
2022-11-19T10:56:36.310Z,99833.06
2022-11-19T10:59:12.631Z,99831.94
2022-11-19T11:01:43.252Z,99832.69
2022-11-19T11:04:16.619Z,99823.81
2022-11-19T11:06:52.512Z,99825.81
2022-11-19T11:09:34.387Z,99830.97
2022-11-19T11:12:28.384Z,99816.88
2022-11-19T11:15:01.239Z,99823.63
2022-11-19T11:17:31.833Z,99821.38
2022-11-19T11:20:01.905Z,99820.44
2022-11-19T11:22:30.019Z,99818.75
2022-11-19T11:25:02.720Z,99815.91
2022-11-19T11:27:35.433Z,99818.28
2022-11-19T11:30:18.209Z,99831.25
2022-11-19T11:32:46.662Z,99831.09
2022-11-19T11:35:30.346Z,99831.25
2022-11-19T11:37:58.526Z,99835.69
2022-11-19T11:40:26.274Z,99823.75
2022-11-19T11:42:54.464Z,99822.91
2022-11-19T11:45:31.171Z,99822.53
2022-11-19T11:48:04.717Z,99819.59
2022-11-19T11:50:32.518Z,99820.19
2022-11-19T11:53:08.035Z,99828.25
2022-11-19T11:55:36.055Z,99831.75
2022-11-19T11:58:06.186Z,99829.22
2022-11-19T12:00:39.748Z,99828.44
2022-11-19T12:03:09.534Z,99835.50
2022-11-19T12:05:46.378Z,99834.00
2022-11-19T12:08:27.106Z,99826.19
2022-11-19T12:11:03.840Z,99815.56
2022-11-19T12:13:51.996Z,99817.16
2022-11-19T12:16:29.088Z,99829.41
2022-11-19T12:19:10.870Z,99832.97
2022-11-19T12:21:49.929Z,99826.75
2022-11-19T12:24:36.600Z,99823.16
2022-11-19T12:27:20.044Z,99832.13
2022-11-19T12:30:00.508Z,99832.31
2022-11-19T12:32:48.744Z,99832.97
2022-11-19T12:35:36.777Z,99830.53
2022-11-19T12:38:19.714Z,99827.34
2022-11-19T12:40:57.731Z,99819.91
2022-11-19T12:43:43.174Z,99838.22
2022-11-19T12:46:20.764Z,99834.56
2022-11-19T12:49:02.173Z,99830.97
2022-11-19T12:51:45.192Z,99835.25
2022-11-19T12:54:33.367Z,99830.16
2022-11-19T12:57:23.729Z,99836.63
2022-11-19T13:00:10.960Z,99837.38
2022-11-19T13:02:47.426Z,99832.03
2022-11-19T13:05:20.741Z,99835.78
2022-11-19T13:07:54.755Z,99841.06
2022-11-19T13:10:25.587Z,99836.63
2022-11-19T13:12:57.228Z,99827.13
2022-11-19T13:15:29.994Z,99827.59
2022-11-19T13:18:00.702Z,99829.94
2022-11-19T13:20:41.840Z,99838.72
2022-11-19T13:23:16.638Z,99843.41
2022-11-19T13:25:56.763Z,99836.81
2022-11-19T13:28:31.702Z,99840.19
2022-11-19T13:31:04.124Z,99843.94
2022-11-19T13:33:39.542Z,99842.94
2022-11-19T13:36:16.911Z,99839.44
2022-11-19T13:38:51.697Z,99838.06
2022-11-19T13:41:23.043Z,99847.00
2022-11-19T13:44:08.613Z,99844.44
2022-11-19T13:46:41.949Z,99836.25
2022-11-19T13:49:17.443Z,99852.34
2022-11-19T13:51:49.988Z,99847.84
2022-11-19T13:54:24.969Z,99851.97
2022-11-19T13:56:55.846Z,99844.16
2022-11-19T13:59:30.811Z,99852.44
2022-11-19T14:02:19.761Z,99856.78
2022-11-19T14:05:26.361Z,99853.03
2022-11-19T14:08:08.734Z,99850.56
2022-11-19T14:10:45.212Z,99863.56
2022-11-19T14:13:29.173Z,99863.28
2022-11-19T14:16:26.289Z,99866.81
2022-11-19T14:19:17.141Z,99864.03
2022-11-19T14:22:08.315Z,99867.41
2022-11-19T14:25:15.032Z,99870.97
2022-11-19T14:27:43.691Z,99877.19
2022-11-19T14:30:19.829Z,99870.41
2022-11-19T14:32:50.888Z,99870.50
2022-11-19T14:35:35.188Z,99873.13
2022-11-19T14:38:34.423Z,99873.06
2022-11-19T14:41:16.622Z,99870.50
2022-11-19T14:44:09.497Z,99872.22
2022-11-19T14:46:39.582Z,99869.75
2022-11-19T14:49:28.808Z,99869.84
2022-11-19T14:51:58.490Z,99877.66
2022-11-19T14:54:34.011Z,99874.44
2022-11-19T14:57:15.803Z,99875.47
2022-11-19T14:59:48.937Z,99873.78
2022-11-19T15:02:23.336Z,99874.44
2022-11-19T15:04:56.477Z,99880.06
2022-11-19T15:07:37.467Z,99875.56
2022-11-19T15:10:29.356Z,99881.19
2022-11-19T15:13:23.666Z,99868.78
2022-11-19T15:15:57.582Z,99877.44
2022-11-19T15:18:49.264Z,99884.59
2022-11-19T15:21:31.430Z,99881.78
2022-11-19T15:24:12.570Z,99883.00
2022-11-19T15:26:51.569Z,99892.47
2022-11-19T15:29:38.807Z,99887.34
2022-11-19T15:32:20.371Z,99894.88
2022-11-19T15:35:17.206Z,99883.56
2022-11-19T15:37:49.755Z,99890.59
2022-11-19T15:40:22.183Z,99885.34
2022-11-19T15:42:55.526Z,99887.34
2022-11-19T15:45:25.571Z,99893.72
2022-11-19T15:47:57.222Z,99888.09
2022-11-19T15:50:27.837Z,99894.28
2022-11-19T15:53:00.338Z,99887.41
2022-11-19T15:55:30.870Z,99883.06
2022-11-19T15:58:03.630Z,99886.47
2022-11-19T16:00:44.610Z,99881.13
2022-11-19T16:03:13.505Z,99888.53
2022-11-19T16:05:46.353Z,99885.72
2022-11-19T16:08:17.235Z,99884.69
2022-11-19T16:10:47.955Z,99887.69
2022-11-19T16:13:43.341Z,99886.00
2022-11-19T16:16:39.780Z,99894.94
2022-11-19T16:19:07.680Z,99902.06
2022-11-19T16:21:39.953Z,99910.34
2022-11-19T16:24:32.015Z,99907.69
2022-11-19T16:27:01.084Z,99911.25
2022-11-19T16:29:29.719Z,99910.69
2022-11-19T16:32:00.666Z,99903.56
2022-11-19T16:34:32.468Z,99908.69
2022-11-19T16:37:00.599Z,99916.44
2022-11-19T16:39:31.872Z,99922.75
2022-11-19T16:42:22.517Z,99923.75
2022-11-19T16:44:52.139Z,99915.97
2022-11-19T16:47:28.832Z,99926.38
2022-11-19T16:50:02.198Z,99919.03
2022-11-19T16:52:41.061Z,99920.03
2022-11-19T16:55:43.258Z,99928.28
2022-11-19T16:58:20.499Z,99928.28
2022-11-19T17:00:51.133Z,99933.53
2022-11-19T17:03:36.954Z,99930.66
2022-11-19T17:06:06.393Z,99930.75
2022-11-19T17:08:36.512Z,99916.41
2022-11-19T17:11:34.996Z,99915.78
2022-11-19T17:14:21.270Z,99926.25
2022-11-19T17:16:50.524Z,99928.28
2022-11-19T17:19:28.999Z,99935.19
2022-11-19T17:21:59.880Z,99937.88
2022-11-19T17:24:31.667Z,99936.44
2022-11-19T17:26:59.849Z,99941.56
2022-11-19T17:29:28.317Z,99944.25
2022-11-19T17:31:57.305Z,99933.97
2022-11-19T17:34:32.209Z,99943.50
2022-11-19T17:37:00.715Z,99946.06
2022-11-19T17:39:28.575Z,99948.69
2022-11-19T17:42:15.126Z,99939.69
2022-11-19T17:44:43.599Z,99937.63
2022-11-19T17:47:21.876Z,99936.50
2022-11-19T17:49:52.813Z,99943.56
2022-11-19T17:52:26.111Z,99935.06
2022-11-19T17:54:56.312Z,99947.09
2022-11-19T17:57:24.177Z,99948.22
2022-11-19T17:59:52.160Z,99956.88
2022-11-19T18:02:21.756Z,99961.56
2022-11-19T18:04:50.351Z,99964.13
2022-11-19T18:07:19.678Z,99967.00
2022-11-19T18:09:47.670Z,99967.94
2022-11-19T18:12:18.309Z,99969.56
2022-11-19T18:14:46.711Z,99967.59
2022-11-19T18:17:15.786Z,99973.97
2022-11-19T18:19:43.775Z,99967.09
2022-11-19T18:22:18.411Z,99971.56
2022-11-19T18:24:49.885Z,99974.22
2022-11-19T18:27:18.508Z,99968.88
2022-11-19T18:29:46.494Z,99966.22
2022-11-19T18:32:16.979Z,99972.38
2022-11-19T18:34:45.592Z,99971.69
2022-11-19T18:37:14.015Z,99969.97
2022-11-19T18:39:41.897Z,99978.91
2022-11-19T18:42:13.030Z,99969.75
2022-11-19T18:44:41.836Z,99981.88
2022-11-19T18:47:11.314Z,99981.78
2022-11-19T18:49:39.715Z,99982.78
2022-11-19T18:52:09.237Z,99976.09
2022-11-19T18:54:37.118Z,99981.53
2022-11-19T18:57:05.242Z,99977.38
2022-11-19T18:59:34.370Z,99989.44
2022-11-19T19:02:02.276Z,99983.47
2022-11-19T19:04:30.079Z,99987.22
2022-11-19T19:06:59.269Z,99990.59
2022-11-19T19:09:27.181Z,99985.19
2022-11-19T19:12:14.019Z,99992.22
2022-11-19T19:14:44.125Z,99997.03
2022-11-19T19:17:12.642Z,99993.50
2022-11-19T19:19:40.380Z,99996.97
2022-11-19T19:22:08.810Z,99994.59
2022-11-19T19:24:36.735Z,99993.84
2022-11-19T19:27:05.375Z,100001.81
2022-11-19T19:29:33.104Z,100004.44
2022-11-19T19:32:02.498Z,99999.44
2022-11-19T19:34:30.696Z,100006.31
2022-11-19T19:36:58.449Z,100008.66
2022-11-19T19:39:26.537Z,100018.28
2022-11-19T19:41:54.861Z,100014.69
2022-11-19T19:44:22.650Z,100009.44
2022-11-19T19:46:50.727Z,100011.91
2022-11-19T19:49:20.450Z,100010.97
2022-11-19T19:51:48.452Z,100012.69
2022-11-19T19:54:19.384Z,100010.38
2022-11-19T19:56:47.311Z,100019.81
2022-11-19T19:59:18.205Z,100016.16
2022-11-19T20:01:47.452Z,100013.59
2022-11-19T20:04:15.430Z,100013.59
2022-11-19T20:06:47.789Z,100016.06
2022-11-19T20:09:15.855Z,100016.22
2022-11-19T20:11:43.685Z,100014.28
2022-11-19T20:14:12.658Z,100012.41
2022-11-19T20:16:41.853Z,100003.50
2022-11-19T20:19:13.186Z,100005.13
2022-11-19T20:21:40.996Z,100021.00
2022-11-19T20:24:12.807Z,100021.00
2022-11-19T20:26:42.042Z,100029.72
2022-11-19T20:29:12.515Z,100024.38
2022-11-19T20:31:41.544Z,100031.34
2022-11-19T20:34:09.369Z,100029.03
2022-11-19T20:36:37.333Z,100022.69
2022-11-19T20:39:06.496Z,100030.50
2022-11-19T20:41:53.327Z,100023.56
2022-11-19T20:44:21.852Z,100030.50
2022-11-19T20:46:52.494Z,100038.47
2022-11-19T20:49:21.854Z,100035.06
2022-11-19T20:51:50.248Z,100038.47
2022-11-19T20:54:19.394Z,100036.00
2022-11-19T20:56:49.106Z,100043.97
2022-11-19T20:59:16.904Z,100036.09
2022-11-19T21:01:44.836Z,100043.22
2022-11-19T21:04:13.116Z,100036.09
2022-11-19T21:06:41.536Z,100037.69
2022-11-19T21:09:09.669Z,100045.78
2022-11-19T21:11:37.608Z,100042.88
2022-11-19T21:14:08.124Z,100036.84
2022-11-19T21:16:35.974Z,100034.91
2022-11-19T21:19:03.746Z,100041.78
2022-11-19T21:21:31.479Z,100041.97
2022-11-19T21:23:59.324Z,100033.31
2022-11-19T21:26:28.913Z,100034.66
2022-11-19T21:28:58.265Z,100027.78
2022-11-19T21:31:38.453Z,100038.31
2022-11-19T21:34:07.921Z,100036.53
2022-11-19T21:36:36.092Z,100036.53
2022-11-19T21:39:04.607Z,100033.75
2022-11-19T21:41:32.895Z,100044.19
2022-11-19T21:44:00.772Z,100036.38
2022-11-19T21:46:29.973Z,100033.81
2022-11-19T21:48:57.864Z,100031.25
2022-11-19T21:51:25.767Z,100029.66
2022-11-19T21:53:55.114Z,100033.06
2022-11-19T21:56:23.002Z,100026.25
2022-11-19T21:58:50.665Z,100027.09
2022-11-19T22:01:18.462Z,100027.88
2022-11-19T22:03:47.623Z,100017.69
2022-11-19T22:06:15.395Z,100020.31
2022-11-19T22:08:43.661Z,100016.75
2022-11-19T22:11:31.927Z,100015.31
2022-11-19T22:14:02.161Z,100016.75
2022-11-19T22:16:31.801Z,100026.34
2022-11-19T22:19:01.156Z,100023.00
2022-11-19T22:21:30.059Z,100016.00
2022-11-19T22:23:58.698Z,100021.16
2022-11-19T22:26:26.504Z,100021.75
2022-11-19T22:28:54.361Z,100014.63
2022-11-19T22:31:22.616Z,100018.19
2022-11-19T22:33:53.698Z,100012.84
2022-11-19T22:36:23.682Z,100006.06
2022-11-19T22:38:52.356Z,100019.22
2022-11-19T22:41:22.071Z,100018.38
2022-11-19T22:43:50.323Z,100021.91
2022-11-19T22:46:19.117Z,100009.78
2022-11-19T22:48:46.901Z,100012.50
2022-11-19T22:51:16.690Z,100013.09
2022-11-19T22:53:46.060Z,100013.03
2022-11-19T22:56:15.890Z,100018.28
2022-11-19T22:58:44.167Z,100005.22
2022-11-19T23:01:17.807Z,99995.72
2022-11-19T23:03:46.212Z,99997.72
2022-11-19T23:06:14.436Z,99992.47
2022-11-19T23:08:42.391Z,99993.16
2022-11-19T23:11:12.597Z,100003.34
2022-11-19T23:13:41.300Z,100001.75
2022-11-19T23:16:12.467Z,100011.66
2022-11-19T23:18:42.007Z,100008.09
2022-11-19T23:21:12.468Z,100002.66
2022-11-19T23:23:40.240Z,100006.31
2022-11-19T23:26:09.830Z,99998.75
2022-11-19T23:28:39.908Z,100002.41
2022-11-19T23:31:09.414Z,100010.03
2022-11-19T23:33:37.695Z,99999.66
2022-11-19T23:36:07.861Z,100003.06
2022-11-19T23:38:36.598Z,100004.03
2022-11-19T23:41:09.259Z,99996.13
2022-11-19T23:43:38.836Z,99996.88
2022-11-19T23:46:09.139Z,99999.59
2022-11-19T23:48:38.088Z,99999.53
2022-11-19T23:51:08.440Z,99999.03
2022-11-19T23:53:36.622Z,99985.88
2022-11-19T23:56:05.514Z,99982.78
2022-11-19T23:58:33.919Z,99983.03
